createdAt,value
2019-04-01T00:00:18.338Z,58.94
2019-04-01T00:01:18.297Z,58.81
2019-04-01T00:02:18.280Z,59.33
2019-04-01T00:03:18.268Z,58.18
2019-04-01T00:04:18.253Z,58.73
2019-04-01T00:05:18.273Z,59.14
2019-04-01T00:06:18.247Z,58.73
2019-04-01T00:07:18.221Z,59.56
2019-04-01T00:08:18.207Z,59.56
2019-04-01T00:09:18.285Z,59.04
2019-04-01T00:10:18.186Z,59.43
2019-04-01T00:11:18.218Z,59.25
2019-04-01T00:12:18.164Z,59.98
2019-04-01T00:13:18.157Z,60.50
2019-04-01T00:14:18.157Z,59.64
2019-04-01T00:15:18.143Z,60.16
2019-04-01T00:16:18.117Z,59.35
2019-04-01T00:17:18.128Z,59.77
2019-04-01T00:18:18.108Z,60.60
2019-04-01T00:19:18.096Z,59.77
2019-04-01T00:20:18.079Z,59.33
2019-04-01T00:21:18.112Z,59.33
2019-04-01T00:22:18.055Z,59.53
2019-04-01T00:23:18.041Z,59.12
2019-04-01T00:24:18.039Z,59.09
2019-04-01T00:25:18.046Z,59.92
2019-04-01T00:26:18.019Z,59.43
2019-04-01T00:27:18.004Z,58.67
2019-04-01T00:28:18.003Z,58.47
2019-04-01T00:29:17.985Z,59.50
2019-04-01T00:30:17.967Z,58.78
2019-04-01T00:31:18.004Z,58.78
2019-04-01T00:32:17.953Z,59.71
2019-04-01T00:33:17.945Z,59.53
2019-04-01T00:34:17.921Z,59.71
2019-04-01T00:35:17.909Z,59.64
2019-04-01T00:36:17.901Z,59.84
2019-04-01T00:37:17.924Z,59.43
2019-04-01T00:38:17.880Z,61.30
2019-04-01T00:39:17.875Z,60.16
2019-04-01T00:40:17.883Z,60.78
2019-04-01T00:41:17.849Z,60.88
2019-04-01T00:42:17.838Z,61.09
2019-04-01T00:43:17.856Z,60.16
2019-04-01T00:44:17.806Z,61.30
2019-04-01T00:45:17.800Z,61.30
2019-04-01T00:46:17.805Z,61.22
2019-04-01T00:47:17.787Z,61.12
2019-04-01T00:48:17.773Z,61.33
2019-04-01T00:49:17.800Z,61.12
2019-04-01T00:50:17.756Z,60.91
2019-04-01T00:51:17.757Z,62.05
2019-04-01T00:52:17.740Z,62.16
2019-04-01T00:53:18.238Z,61.85
2019-04-01T00:54:17.706Z,61.74
2019-04-01T00:55:17.708Z,60.91
2019-04-01T00:56:17.701Z,61.02
2019-04-01T00:57:17.695Z,62.26
2019-04-01T00:58:17.666Z,61.82
2019-04-01T00:59:17.657Z,62.45
2019-04-01T01:00:17.682Z,62.13
2019-04-01T01:01:17.630Z,61.43
2019-04-01T01:02:17.616Z,61.43
2019-04-01T01:03:17.595Z,61.22
2019-04-01T01:04:17.617Z,62.76
2019-04-01T01:05:17.587Z,62.16
2019-04-01T01:06:17.609Z,61.92
2019-04-01T01:07:17.596Z,61.85
2019-04-01T01:08:17.546Z,61.92
2019-04-01T01:09:17.548Z,61.92
2019-04-01T01:10:17.639Z,62.13
2019-04-01T01:11:17.531Z,62.02
2019-04-01T01:12:17.550Z,61.92
2019-04-01T01:13:17.507Z,62.02
2019-04-01T01:14:17.506Z,61.82
2019-04-01T01:15:17.479Z,62.65
2019-04-01T01:16:17.464Z,62.96
2019-04-01T01:17:17.454Z,62.76
2019-04-01T01:18:17.468Z,62.76
2019-04-01T01:19:17.466Z,63.07
2019-04-01T01:20:17.422Z,63.17
2019-04-01T01:21:17.411Z,63.28
2019-04-01T01:22:17.409Z,63.62
2019-04-01T01:23:17.393Z,63.41
2019-04-01T01:24:17.389Z,63.72
2019-04-01T01:25:17.423Z,64.55
2019-04-01T01:26:17.357Z,64.03
2019-04-01T01:27:17.341Z,64.03
2019-04-01T01:28:17.334Z,63.82
2019-04-01T01:29:17.343Z,64.14
2019-04-01T01:30:17.333Z,64.11
2019-04-01T01:31:17.314Z,64.03
2019-04-01T01:32:17.295Z,64.24
2019-04-01T01:33:17.349Z,64.03
2019-04-01T01:34:17.288Z,64.03
2019-04-01T01:35:17.283Z,64.76
2019-04-01T01:36:17.255Z,64.76
2019-04-01T01:37:17.248Z,65.17
2019-04-01T01:38:17.221Z,65.28
2019-04-01T01:39:17.225Z,64.97
2019-04-01T01:40:17.208Z,63.93
2019-04-01T01:41:17.229Z,64.31
2019-04-01T01:42:17.189Z,64.55
2019-04-01T01:43:17.178Z,64.21
2019-04-01T01:44:17.170Z,64.55
2019-04-01T01:45:17.155Z,65.07
2019-04-01T01:46:17.132Z,65.28
2019-04-01T01:47:17.148Z,64.97
2019-04-01T01:48:17.119Z,65.38
2019-04-01T01:49:17.110Z,64.76
2019-04-01T01:50:17.119Z,64.76
2019-04-01T01:51:17.091Z,64.86
2019-04-01T01:52:17.073Z,64.97
2019-04-01T01:53:17.103Z,64.76
2019-04-01T01:54:17.060Z,64.86
2019-04-01T01:55:17.056Z,65.07
2019-04-01T01:56:17.082Z,65.20
2019-04-01T01:57:17.026Z,64.76
2019-04-01T01:58:17.043Z,65.10
2019-04-01T01:59:16.989Z,65.00
2019-04-01T02:00:16.989Z,65.10
2019-04-01T02:01:16.972Z,65.72
2019-04-01T02:02:16.975Z,65.31
2019-04-01T02:03:16.961Z,65.52
2019-04-01T02:04:16.976Z,66.87
2019-04-01T02:05:16.975Z,66.24
2019-04-01T02:06:16.936Z,66.35
2019-04-01T02:07:16.940Z,66.14
2019-04-01T02:08:16.905Z,65.65
2019-04-01T02:09:16.896Z,66.27
2019-04-01T02:10:16.876Z,66.56
2019-04-01T02:11:16.865Z,67.00
2019-04-01T02:12:16.864Z,65.93
2019-04-01T02:13:16.866Z,65.96
2019-04-01T02:14:16.842Z,66.24
2019-04-01T02:15:16.847Z,65.72
2019-04-01T02:16:16.842Z,65.93
2019-04-01T02:17:16.809Z,65.41
2019-04-01T02:18:16.791Z,65.31
2019-04-01T02:19:16.792Z,65.52
2019-04-01T02:20:16.777Z,65.20
2019-04-01T02:21:16.753Z,65.52
2019-04-01T02:22:16.750Z,65.52
2019-04-01T02:23:16.771Z,65.72
2019-04-01T02:24:16.716Z,66.24
2019-04-01T02:25:16.709Z,65.72
2019-04-01T02:26:16.703Z,65.41
2019-04-01T02:27:16.703Z,65.52
2019-04-01T02:28:16.692Z,65.93
2019-04-01T02:29:16.715Z,66.14
2019-04-01T02:30:16.670Z,66.03
2019-04-01T02:31:16.642Z,66.03
2019-04-01T02:32:16.642Z,65.20
2019-04-01T02:33:16.648Z,65.41
2019-04-01T02:34:16.632Z,66.14
2019-04-01T02:35:16.644Z,65.83
2019-04-01T02:36:16.687Z,65.41
2019-04-01T02:37:16.585Z,65.59
2019-04-01T02:38:16.570Z,64.79
2019-04-01T02:39:16.580Z,65.00
2019-04-01T02:40:16.584Z,65.72
2019-04-01T02:41:16.545Z,65.93
2019-04-01T02:42:16.550Z,65.41
2019-04-01T02:43:16.516Z,66.59
2019-04-01T02:44:16.509Z,66.24
2019-04-01T02:45:16.559Z,67.00
2019-04-01T02:46:16.520Z,66.69
2019-04-01T02:47:16.488Z,66.17
2019-04-01T02:48:16.472Z,66.48
2019-04-01T02:49:16.463Z,66.90
2019-04-01T02:50:16.434Z,67.00
2019-04-01T02:51:16.447Z,67.63
2019-04-01T02:52:16.467Z,67.14
2019-04-01T02:53:16.418Z,67.66
2019-04-01T02:54:16.407Z,67.14
2019-04-01T02:55:16.420Z,67.45
2019-04-01T02:56:16.389Z,67.55
2019-04-01T02:57:16.363Z,67.55
2019-04-01T02:58:16.394Z,67.86
2019-04-01T02:59:16.357Z,67.55
2019-04-01T03:00:16.351Z,67.14
2019-04-01T03:01:16.329Z,67.86
2019-04-01T03:02:16.313Z,67.97
2019-04-01T03:03:16.307Z,68.07
2019-04-01T03:04:16.320Z,68.18
2019-04-01T03:05:16.294Z,68.21
2019-04-01T03:06:16.283Z,68.18
2019-04-01T03:07:16.262Z,68.63
2019-04-01T03:08:16.350Z,68.94
2019-04-01T03:09:16.247Z,69.15
2019-04-01T03:10:16.246Z,68.94
2019-04-01T03:11:16.387Z,68.94
2019-04-01T03:12:16.218Z,68.94
2019-04-01T03:13:16.198Z,69.25
2019-04-01T03:14:16.184Z,69.70
2019-04-01T03:15:16.185Z,69.81
2019-04-01T03:16:16.186Z,70.12
2019-04-01T03:17:16.150Z,70.12
2019-04-01T03:18:16.165Z,69.98
2019-04-01T03:19:16.139Z,69.91
2019-04-01T03:20:16.119Z,70.12
2019-04-01T03:21:16.137Z,70.12
2019-04-01T03:22:16.118Z,69.91
2019-04-01T03:23:16.099Z,69.98
2019-04-01T03:24:16.074Z,70.32
2019-04-01T03:25:16.064Z,70.12
2019-04-01T03:26:16.089Z,69.70
2019-04-01T03:27:17.514Z,69.70
2019-04-01T03:28:16.062Z,69.91
2019-04-01T03:29:16.025Z,69.81
2019-04-01T03:30:16.014Z,70.53
2019-04-01T03:31:16.012Z,70.53
2019-04-01T03:32:16.021Z,70.84
2019-04-01T03:33:16.001Z,70.53
2019-04-01T03:34:15.960Z,70.01
2019-04-01T03:35:15.958Z,70.78
2019-04-01T03:36:15.951Z,71.40
2019-04-01T03:37:15.931Z,71.40
2019-04-01T03:38:15.945Z,71.30
2019-04-01T03:39:15.925Z,71.30
2019-04-01T03:40:15.937Z,70.98
2019-04-01T03:41:15.902Z,71.16
2019-04-01T03:42:15.978Z,71.16
2019-04-01T03:43:15.890Z,71.50
2019-04-01T03:44:15.867Z,71.71
2019-04-01T03:45:15.856Z,71.50
2019-04-01T03:46:15.839Z,72.02
2019-04-01T03:47:15.836Z,71.71
2019-04-01T03:48:15.807Z,71.81
2019-04-01T03:49:15.816Z,71.81
2019-04-01T03:50:15.804Z,71.50
2019-04-01T03:51:15.814Z,71.81
2019-04-01T03:52:15.780Z,71.50
2019-04-01T03:53:15.806Z,71.81
2019-04-01T03:54:15.767Z,71.61
2019-04-01T03:55:15.755Z,71.47
2019-04-01T03:56:15.726Z,71.71
2019-04-01T03:57:15.733Z,71.40
2019-04-01T03:58:15.797Z,71.61
2019-04-01T03:59:15.738Z,72.02
2019-04-01T04:00:15.684Z,71.61
2019-04-01T04:01:15.697Z,71.40
2019-04-01T04:02:15.665Z,72.75
2019-04-01T04:03:15.683Z,72.44
2019-04-01T04:04:15.717Z,72.24
2019-04-01T04:05:15.641Z,71.92
2019-04-01T04:06:15.617Z,72.02
2019-04-01T04:07:15.607Z,72.55
2019-04-01T04:08:15.598Z,72.65
2019-04-01T04:09:15.590Z,72.47
2019-04-01T04:10:15.630Z,72.78
2019-04-01T04:11:15.570Z,71.95
2019-04-01T04:12:15.570Z,72.68
2019-04-01T04:13:15.572Z,72.55
2019-04-01T04:14:15.553Z,72.58
2019-04-01T04:15:15.540Z,73.41
2019-04-01T04:16:15.518Z,73.21
2019-04-01T04:17:15.504Z,72.78
2019-04-01T04:18:15.501Z,72.58
2019-04-01T04:19:15.495Z,72.89
2019-04-01T04:20:15.489Z,73.21
2019-04-01T04:21:15.461Z,73.52
2019-04-01T04:22:15.449Z,73.00
2019-04-01T04:23:15.453Z,72.78
2019-04-01T04:24:15.468Z,72.68
2019-04-01T04:25:15.420Z,72.78
2019-04-01T04:26:15.425Z,72.58
2019-04-01T04:27:15.403Z,72.58
2019-04-01T04:28:15.389Z,72.78
2019-04-01T04:29:15.376Z,72.34
2019-04-01T04:30:15.369Z,72.78
2019-04-01T04:31:15.381Z,72.55
2019-04-01T04:32:15.365Z,72.44
2019-04-01T04:33:15.334Z,73.27
2019-04-01T04:34:15.340Z,73.21
2019-04-01T04:35:15.312Z,72.68
2019-04-01T04:36:15.347Z,73.10
2019-04-01T04:37:15.310Z,73.07
2019-04-01T04:38:15.292Z,71.81
2019-04-01T04:39:15.263Z,73.07
2019-04-01T04:40:15.249Z,72.86
2019-04-01T04:41:15.242Z,72.55
2019-04-01T04:42:15.263Z,72.02
2019-04-01T04:43:15.260Z,71.81
2019-04-01T04:44:15.219Z,71.71
2019-04-01T04:45:15.206Z,72.02
2019-04-01T04:46:15.186Z,71.61
2019-04-01T04:47:15.193Z,71.61
2019-04-01T04:48:15.206Z,71.40
2019-04-01T04:49:15.163Z,71.61
2019-04-01T04:50:15.165Z,72.86
2019-04-01T04:51:15.155Z,72.24
2019-04-01T04:52:15.140Z,71.71
2019-04-01T04:53:15.107Z,71.50
2019-04-01T04:54:15.133Z,71.71
2019-04-01T04:55:15.089Z,70.78
2019-04-01T04:56:15.095Z,71.26
2019-04-01T04:57:15.115Z,71.30
2019-04-01T04:58:15.066Z,71.58
2019-04-01T04:59:15.056Z,71.58
2019-04-01T05:00:15.047Z,72.20
2019-04-01T05:01:15.026Z,71.78
2019-04-01T05:02:15.023Z,71.47
2019-04-01T05:03:15.038Z,71.78
2019-04-01T05:04:14.992Z,72.09
2019-04-01T05:05:14.990Z,71.05
2019-04-01T05:06:14.999Z,71.37
2019-04-01T05:07:14.996Z,71.37
2019-04-01T05:08:14.991Z,71.37
2019-04-01T05:09:14.951Z,70.29
2019-04-01T05:10:14.947Z,70.50
2019-04-01T05:11:14.968Z,70.50
2019-04-01T05:12:14.923Z,70.05
2019-04-01T05:13:14.911Z,69.19
2019-04-01T05:14:14.916Z,67.15
2019-04-01T05:15:14.887Z,66.18
2019-04-01T05:16:14.873Z,66.02
2019-04-01T05:17:14.863Z,63.71
2019-04-01T05:18:14.839Z,63.57
2019-04-01T05:19:14.862Z,62.40
2019-04-01T05:20:16.489Z,62.16
2019-04-01T05:21:14.814Z,61.21
2019-04-01T05:22:14.804Z,60.79
2019-04-01T05:23:14.805Z,59.39
2019-04-01T05:24:14.780Z,58.33
2019-04-01T05:25:14.792Z,56.96
2019-04-01T05:26:14.766Z,55.49
2019-04-01T05:27:14.755Z,55.46
2019-04-01T05:28:14.747Z,55.13
2019-04-01T05:29:14.766Z,55.00
2019-04-01T05:30:14.726Z,52.78
2019-04-01T05:31:14.781Z,54.20
2019-04-01T05:32:14.688Z,50.70
2019-04-01T05:33:14.682Z,51.31
2019-04-01T05:34:14.676Z,51.16
2019-04-01T05:35:14.687Z,51.16
2019-04-01T05:36:14.657Z,49.68
2019-04-01T05:37:14.645Z,48.72
2019-04-01T05:38:14.647Z,48.91
2019-04-01T05:39:14.648Z,48.29
2019-04-01T05:40:14.635Z,46.98
2019-04-01T05:41:14.608Z,47.08
2019-04-01T05:42:14.578Z,48.50
2019-04-01T05:43:14.566Z,48.72
2019-04-01T05:44:14.557Z,47.47
2019-04-01T05:45:14.571Z,46.91
2019-04-01T05:46:14.557Z,46.79
2019-04-01T05:47:14.540Z,46.46
2019-04-01T05:48:14.531Z,45.13
2019-04-01T05:49:14.510Z,45.33
2019-04-01T05:50:14.506Z,46.05
2019-04-01T05:51:14.489Z,44.88
2019-04-01T05:52:14.479Z,44.24
2019-04-01T05:53:14.474Z,42.18
2019-04-01T05:54:14.450Z,43.40
2019-04-01T05:55:14.471Z,42.05
2019-04-01T05:56:14.465Z,41.24
2019-04-01T05:57:14.427Z,41.95
2019-04-01T05:58:14.411Z,41.97
2019-04-01T05:59:14.421Z,43.61
2019-04-01T06:00:14.392Z,42.18
2019-04-01T06:01:14.397Z,43.40
2019-04-01T06:02:14.361Z,42.99
2019-04-01T06:03:14.356Z,41.77
2019-04-01T06:04:14.338Z,43.40
2019-04-01T06:05:14.367Z,42.18
2019-04-01T06:06:14.330Z,42.58
2019-04-01T06:07:14.312Z,42.58
2019-04-01T06:08:14.293Z,42.26
2019-04-01T06:09:14.310Z,43.20
2019-04-01T06:10:14.286Z,43.51
2019-04-01T06:11:14.292Z,41.97
2019-04-01T06:12:14.285Z,43.84
2019-04-01T06:13:14.255Z,43.63
2019-04-01T06:14:14.225Z,42.54
2019-04-01T06:15:14.212Z,44.62
2019-04-01T06:16:14.237Z,44.12
2019-04-01T06:17:14.192Z,44.53
2019-04-01T06:18:14.190Z,44.26
2019-04-01T06:19:14.200Z,45.48
2019-04-01T06:20:14.168Z,46.22
2019-04-01T06:21:14.155Z,45.70
2019-04-01T06:22:14.175Z,45.76
2019-04-01T06:23:14.137Z,44.41
2019-04-01T06:24:14.129Z,43.88
2019-04-01T06:25:14.137Z,43.63
2019-04-01T06:26:14.094Z,43.22
2019-04-01T06:27:14.098Z,42.16
2019-04-01T06:28:14.074Z,41.34
2019-04-01T06:29:14.056Z,40.93
2019-04-01T06:30:14.058Z,41.44
2019-04-01T06:31:14.048Z,40.95
2019-04-01T06:32:14.075Z,41.93
2019-04-01T06:33:14.035Z,43.85
2019-04-01T06:34:14.012Z,42.83
2019-04-01T06:35:14.007Z,42.13
2019-04-01T06:36:13.985Z,43.57
2019-04-01T06:37:13.978Z,43.65
2019-04-01T06:38:13.996Z,42.10
2019-04-01T06:39:13.982Z,41.34
2019-04-01T06:40:13.941Z,40.83
2019-04-01T06:41:13.924Z,40.40
2019-04-01T06:42:13.925Z,40.31
2019-04-01T06:43:13.942Z,40.30
2019-04-01T06:44:13.911Z,40.48
2019-04-01T06:45:13.975Z,39.32
2019-04-01T06:46:13.873Z,37.99
2019-04-01T06:47:13.882Z,36.47
2019-04-01T06:48:13.889Z,38.78
2019-04-01T06:49:13.838Z,39.99
2019-04-01T06:50:13.839Z,38.86
2019-04-01T06:51:13.835Z,39.46
2019-04-01T06:52:13.818Z,38.83
2019-04-01T06:53:13.825Z,37.79
2019-04-01T06:54:13.812Z,37.54
2019-04-01T06:55:13.811Z,39.54
2019-04-01T06:56:13.772Z,38.56
2019-04-01T06:57:13.767Z,38.44
2019-04-01T06:58:13.746Z,38.09
2019-04-01T06:59:13.760Z,37.28
2019-04-01T07:00:13.720Z,37.89
2019-04-01T07:01:13.710Z,37.40
2019-04-01T07:02:13.713Z,37.89
2019-04-01T07:03:13.790Z,36.36
2019-04-01T07:04:13.698Z,37.57
2019-04-01T07:05:13.692Z,37.45
2019-04-01T07:06:13.672Z,36.21
2019-04-01T07:07:19.384Z,35.47
2019-04-01T07:08:14.633Z,34.98
2019-04-01T07:09:13.670Z,36.80
2019-04-01T07:10:13.627Z,33.96
2019-04-01T07:11:13.610Z,34.48
2019-04-01T07:12:13.591Z,35.51
2019-04-01T07:13:13.573Z,36.21
2019-04-01T07:14:13.593Z,35.37
2019-04-01T07:15:13.586Z,35.64
2019-04-01T07:16:15.815Z,34.09
2019-04-01T07:17:13.538Z,33.69
2019-04-01T07:18:13.521Z,33.59
2019-04-01T07:19:13.536Z,32.79
2019-04-01T07:20:13.518Z,33.62
2019-04-01T07:21:13.488Z,34.03
2019-04-01T07:22:13.492Z,34.97
2019-04-01T07:23:13.503Z,34.35
2019-04-01T07:24:13.483Z,33.96
2019-04-01T07:25:13.452Z,34.91
2019-04-01T07:26:13.460Z,35.92
2019-04-01T07:27:13.450Z,34.97
2019-04-01T07:28:13.440Z,34.25
2019-04-01T07:29:13.412Z,34.44
2019-04-01T07:30:13.409Z,34.00
2019-04-01T07:31:13.380Z,32.73
2019-04-01T07:32:14.636Z,31.70
2019-04-01T07:33:13.370Z,30.45
2019-04-01T07:34:13.380Z,29.67
2019-04-01T07:35:13.338Z,30.28
2019-04-01T07:36:13.325Z,29.87
2019-04-01T07:37:13.324Z,30.83
2019-04-01T07:38:13.330Z,33.00
2019-04-01T07:39:13.297Z,32.78
2019-04-01T07:40:14.085Z,32.73
2019-04-01T07:41:13.270Z,31.16
2019-04-01T07:42:13.287Z,31.54
2019-04-01T07:43:14.955Z,30.94
2019-04-01T07:44:13.259Z,31.42
2019-04-01T07:45:13.221Z,28.76
2019-04-01T07:46:13.216Z,27.37
2019-04-01T07:47:13.223Z,28.09
2019-04-01T07:48:13.228Z,29.11
2019-04-01T07:49:13.233Z,27.99
2019-04-01T07:50:13.160Z,27.99
2019-04-01T07:51:13.181Z,27.60
2019-04-01T07:52:13.146Z,28.32
2019-04-01T07:53:13.169Z,29.52
2019-04-01T07:54:13.173Z,28.89
2019-04-01T07:55:13.119Z,27.56
2019-04-01T07:56:13.115Z,27.65
2019-04-01T07:57:13.106Z,26.61
2019-04-01T07:58:13.080Z,25.89
2019-04-01T07:59:13.099Z,26.09
2019-04-01T08:00:13.088Z,27.10
2019-04-01T08:01:13.058Z,26.17
2019-04-01T08:02:13.033Z,25.16
2019-04-01T08:03:13.027Z,25.16
2019-04-01T08:04:13.020Z,24.24
2019-04-01T08:05:13.030Z,24.05
2019-04-01T08:06:13.004Z,23.83
2019-04-01T08:07:13.618Z,23.24
2019-04-01T08:08:12.975Z,24.15
2019-04-01T08:09:12.972Z,25.04
2019-04-01T08:10:12.964Z,23.32
2019-04-01T08:11:12.992Z,23.19
2019-04-01T08:12:12.977Z,23.57
2019-04-01T08:13:12.920Z,21.23
2019-04-01T08:14:12.976Z,20.83
2019-04-01T08:15:12.917Z,21.43
2019-04-01T08:16:12.920Z,20.42
2019-04-01T08:17:12.911Z,21.20
2019-04-01T08:18:12.861Z,20.89
2019-04-01T08:19:12.866Z,20.56
2019-04-01T08:20:12.842Z,19.25
2019-04-01T08:21:12.835Z,18.85
2019-04-01T08:22:12.847Z,19.28
2019-04-01T08:23:12.808Z,20.87
2019-04-01T08:24:12.786Z,19.04
2019-04-01T08:25:12.770Z,18.82
2019-04-01T08:26:12.792Z,20.23
2019-04-01T08:27:12.765Z,18.22
2019-04-01T08:28:12.771Z,19.42
2019-04-01T08:29:12.755Z,18.21
2019-04-01T08:30:12.804Z,17.00
2019-04-01T08:31:13.480Z,18.14
2019-04-01T08:32:13.985Z,19.06
2019-04-01T08:33:12.717Z,19.16
2019-04-01T08:34:12.688Z,18.74
2019-04-01T08:35:12.698Z,18.63
2019-04-01T08:36:12.661Z,18.83
2019-04-01T08:37:12.655Z,19.12
2019-04-01T08:38:12.660Z,18.49
2019-04-01T08:39:12.638Z,18.18
2019-04-01T08:40:12.609Z,17.77
2019-04-01T08:41:12.615Z,17.55
2019-04-01T08:42:12.607Z,15.67
2019-04-01T08:43:12.585Z,16.99
2019-04-01T08:44:12.576Z,18.46
2019-04-01T08:45:12.563Z,16.44
2019-04-01T08:46:12.549Z,16.24
2019-04-01T08:47:12.557Z,16.53
2019-04-01T08:48:12.547Z,15.25
2019-04-01T08:49:12.541Z,16.26
2019-04-01T08:50:12.509Z,16.33
2019-04-01T08:51:12.525Z,16.33
2019-04-01T08:52:12.508Z,16.41
2019-04-01T08:53:12.471Z,15.53
2019-04-01T08:54:12.469Z,16.16
2019-04-01T08:55:12.454Z,16.56
2019-04-01T08:56:12.468Z,16.38
2019-04-01T08:57:12.435Z,15.86
2019-04-01T08:58:12.426Z,16.65
2019-04-01T08:59:12.398Z,16.95
2019-04-01T09:00:12.394Z,16.82
2019-04-01T09:01:12.380Z,16.31
2019-04-01T09:02:18.027Z,15.31
2019-04-01T09:03:13.393Z,15.51
2019-04-01T09:04:12.356Z,15.50
2019-04-01T09:05:12.339Z,14.70
2019-04-01T09:06:12.465Z,16.42
2019-04-01T09:07:12.324Z,14.84
2019-04-01T09:08:12.318Z,16.58
2019-04-01T09:09:12.345Z,16.50
2019-04-01T09:10:12.282Z,18.32
2019-04-01T09:11:12.274Z,18.62
2019-04-01T09:12:12.288Z,18.30
2019-04-01T09:13:12.247Z,17.67
2019-04-01T09:14:12.275Z,16.94
2019-04-01T09:15:12.339Z,16.03
2019-04-01T09:16:12.226Z,14.74
2019-04-01T09:17:12.275Z,17.65
2019-04-01T09:18:12.190Z,18.82
2019-04-01T09:19:12.191Z,14.82
2019-04-01T09:20:12.189Z,15.55
2019-04-01T09:21:12.186Z,16.36
2019-04-01T09:22:12.156Z,16.99
2019-04-01T09:23:12.153Z,17.40
2019-04-01T09:24:12.133Z,17.60
2019-04-01T09:25:12.126Z,18.97
2019-04-01T09:26:12.122Z,17.44
2019-04-01T09:27:12.119Z,16.93
2019-04-01T09:28:12.135Z,15.24
2019-04-01T09:29:12.089Z,16.35
2019-04-01T09:30:12.074Z,17.64
2019-04-01T09:31:12.073Z,16.53
2019-04-01T09:32:12.056Z,16.61
2019-04-01T09:33:12.040Z,15.31
2019-04-01T09:34:12.053Z,15.34
2019-04-01T09:35:12.052Z,16.07
2019-04-01T09:36:12.003Z,17.29
2019-04-01T09:37:12.000Z,18.16
2019-04-01T09:38:12.007Z,18.24
2019-04-01T09:39:12.037Z,15.73
2019-04-01T09:40:11.999Z,15.82
2019-04-01T09:41:13.531Z,14.65
2019-04-01T09:42:11.943Z,15.97
2019-04-01T09:43:14.094Z,17.79
2019-04-01T09:44:11.926Z,17.17
2019-04-01T09:45:11.932Z,17.05
2019-04-01T09:46:11.907Z,16.94
2019-04-01T09:47:11.908Z,16.34
2019-04-01T09:48:11.914Z,16.33
2019-04-01T09:49:11.878Z,16.30
2019-04-01T09:50:11.871Z,15.42
2019-04-01T09:51:11.856Z,15.66
2019-04-01T09:52:11.863Z,16.86
2019-04-01T09:53:11.839Z,15.85
2019-04-01T09:54:11.809Z,15.83
2019-04-01T09:55:11.827Z,16.31
2019-04-01T09:56:11.800Z,16.19
2019-04-01T09:57:18.056Z,14.00
2019-04-01T09:58:12.780Z,16.38
2019-04-01T09:59:11.769Z,15.28
2019-04-01T10:00:11.820Z,15.08
2019-04-01T10:01:11.768Z,14.61
2019-04-01T10:02:11.734Z,14.71
2019-04-01T10:03:11.796Z,14.01
2019-04-01T10:04:11.706Z,14.51
2019-04-01T10:05:11.718Z,14.73
2019-04-01T10:06:11.703Z,14.65
2019-04-01T10:07:11.686Z,18.35
2019-04-01T10:08:11.668Z,17.54
2019-04-01T10:09:11.654Z,16.42
2019-04-01T10:10:11.673Z,16.33
2019-04-01T10:11:12.744Z,17.63
2019-04-01T10:12:11.643Z,17.64
2019-04-01T10:13:11.639Z,17.14
2019-04-01T10:14:11.604Z,18.52
2019-04-01T10:15:11.665Z,16.91
2019-04-01T10:16:11.579Z,15.60
2019-04-01T10:17:11.593Z,15.09
2019-04-01T10:18:11.612Z,14.59
2019-04-01T10:19:11.639Z,15.28
2019-04-01T10:20:11.547Z,15.58
2019-04-01T10:21:11.567Z,15.18
2019-04-01T10:22:11.546Z,14.09
2019-04-01T10:23:11.501Z,16.37
2019-04-01T10:24:11.498Z,14.28
2019-04-01T10:25:11.503Z,15.27
2019-04-01T10:26:11.473Z,14.39
2019-04-01T10:27:11.465Z,15.00
2019-04-01T10:28:11.477Z,15.50
2019-04-01T10:29:11.489Z,15.52
2019-04-01T10:30:11.446Z,16.61
2019-04-01T10:31:11.434Z,16.22
2019-04-01T10:32:11.416Z,15.12
2019-04-01T10:33:11.464Z,15.22
2019-04-01T10:34:11.437Z,15.36
2019-04-01T10:35:11.386Z,15.86
2019-04-01T10:36:11.369Z,17.83
2019-04-01T10:37:11.360Z,18.24
2019-04-01T10:38:11.361Z,15.55
2019-04-01T10:39:11.365Z,16.54
2019-04-01T10:40:11.356Z,17.03
2019-04-01T10:41:11.321Z,16.75
2019-04-01T10:42:11.318Z,15.95
2019-04-01T10:43:11.341Z,16.64
2019-04-01T10:44:11.294Z,15.94
2019-04-01T10:45:11.290Z,15.55
2019-04-01T10:46:12.381Z,15.25
2019-04-01T10:47:11.330Z,15.95
2019-04-01T10:48:11.243Z,16.36
2019-04-01T10:49:11.351Z,16.64
2019-04-01T10:50:11.300Z,15.83
2019-04-01T10:51:11.223Z,14.92
2019-04-01T10:52:11.259Z,15.32
2019-04-01T10:53:11.242Z,15.53
2019-04-01T10:54:11.265Z,14.52
2019-04-01T10:55:11.184Z,15.31
2019-04-01T10:56:11.231Z,15.42
2019-04-01T10:57:11.249Z,14.91
2019-04-01T10:58:11.140Z,14.02
2019-04-01T10:59:11.176Z,14.94
2019-04-01T11:00:11.205Z,15.05
2019-04-01T11:01:11.155Z,15.25
2019-04-01T11:02:11.143Z,16.63
2019-04-01T11:03:11.113Z,14.53
2019-04-01T11:04:11.135Z,15.61
2019-04-01T11:05:11.187Z,15.33
2019-04-01T11:06:11.145Z,14.04
2019-04-01T11:07:11.138Z,14.35
2019-04-01T11:08:11.100Z,13.36
2019-04-01T11:09:11.042Z,14.35
2019-04-01T11:10:11.843Z,14.04
2019-04-01T11:11:11.020Z,14.52
2019-04-01T11:12:11.033Z,12.63
2019-04-01T11:13:10.994Z,12.93
2019-04-01T11:14:10.988Z,14.34
2019-04-01T11:15:10.979Z,13.44
2019-04-01T11:16:10.958Z,13.25
2019-04-01T11:17:11.000Z,14.56
2019-04-01T11:18:12.022Z,14.76
2019-04-01T11:19:10.928Z,14.58
2019-04-01T11:20:10.927Z,15.48
2019-04-01T11:21:10.903Z,14.79
2019-04-01T11:22:10.898Z,15.22
2019-04-01T11:23:10.913Z,15.44
2019-04-01T11:24:10.885Z,16.46
2019-04-01T11:25:10.882Z,16.64
2019-04-01T11:26:11.124Z,16.93
2019-04-01T11:27:10.840Z,15.51
2019-04-01T11:28:10.970Z,16.99
2019-04-01T11:29:10.833Z,16.38
2019-04-01T11:30:13.736Z,15.26
2019-04-01T11:31:10.835Z,15.16
2019-04-01T11:32:13.343Z,15.58
2019-04-01T11:33:10.822Z,14.95
2019-04-01T11:34:10.791Z,15.46
2019-04-01T11:35:10.795Z,14.56
2019-04-01T11:36:10.792Z,14.78
2019-04-01T11:37:10.775Z,14.87
2019-04-01T11:38:10.782Z,15.09
2019-04-01T11:39:10.789Z,16.09
2019-04-01T11:40:12.219Z,15.89
2019-04-01T11:41:10.696Z,16.20
2019-04-01T11:42:10.703Z,16.88
2019-04-01T11:43:10.730Z,14.78
2019-04-01T11:44:10.723Z,15.08
2019-04-01T11:45:10.696Z,15.98
2019-04-01T11:46:12.493Z,15.97
2019-04-01T11:47:10.672Z,14.07
2019-04-01T11:48:10.686Z,15.56
2019-04-01T11:49:10.639Z,14.76
2019-04-01T11:50:10.629Z,15.56
2019-04-01T11:51:10.585Z,16.36
2019-04-01T11:52:10.606Z,15.26
2019-04-01T11:53:10.581Z,14.96
2019-04-01T11:54:10.684Z,15.50
2019-04-01T11:55:10.563Z,16.61
2019-04-01T11:56:10.912Z,16.91
2019-04-01T11:57:11.081Z,17.69
2019-04-01T11:58:10.519Z,15.47
2019-04-01T11:59:10.526Z,15.37
2019-04-01T12:00:12.680Z,15.08
2019-04-01T12:01:10.504Z,14.79
2019-04-01T12:02:10.484Z,15.80
2019-04-01T12:03:10.492Z,15.70
2019-04-01T12:04:10.453Z,15.89
2019-04-01T12:05:10.476Z,14.48
2019-04-01T12:06:10.450Z,15.27
2019-04-01T12:07:10.434Z,14.48
2019-04-01T12:08:10.428Z,14.48
2019-04-01T12:09:10.416Z,15.38
2019-04-01T12:10:10.410Z,16.00
2019-04-01T12:11:10.411Z,17.01
2019-04-01T12:12:22.946Z,15.71
2019-04-01T12:13:11.358Z,15.60
2019-04-01T12:14:10.365Z,16.00
2019-04-01T12:15:12.405Z,15.00
2019-04-01T12:16:10.338Z,16.61
2019-04-01T12:17:10.365Z,17.53
2019-04-01T12:18:10.324Z,17.33
2019-04-01T12:19:10.314Z,17.25
2019-04-01T12:20:10.297Z,17.96
2019-04-01T12:21:10.290Z,18.00
2019-04-01T12:22:10.488Z,19.95
2019-04-01T12:23:10.285Z,20.79
2019-04-01T12:24:10.252Z,22.83
2019-04-01T12:25:10.237Z,22.64
2019-04-01T12:26:15.240Z,22.77
2019-04-01T12:27:11.238Z,23.60
2019-04-01T12:28:10.212Z,24.11
2019-04-01T12:29:12.002Z,24.64
2019-04-01T12:30:10.172Z,24.26
2019-04-01T12:31:12.767Z,26.10
2019-04-01T12:32:10.169Z,25.71
2019-04-01T12:33:10.159Z,25.62
2019-04-01T12:34:10.137Z,26.03
2019-04-01T12:35:10.142Z,27.34
2019-04-01T12:36:11.818Z,25.93
2019-04-01T12:37:10.110Z,27.76
2019-04-01T12:38:10.123Z,26.98
2019-04-01T12:39:10.112Z,28.11
2019-04-01T12:40:10.089Z,28.33
2019-04-01T12:41:10.067Z,30.38
2019-04-01T12:42:10.087Z,31.21
2019-04-01T12:43:10.036Z,31.62
2019-04-01T12:44:10.250Z,30.68
2019-04-01T12:45:10.647Z,31.20
2019-04-01T12:46:10.019Z,29.99
2019-04-01T12:47:10.027Z,31.10
2019-04-01T12:48:09.983Z,31.41
2019-04-01T12:49:10.014Z,32.65
2019-04-01T12:50:09.968Z,31.63
2019-04-01T12:51:09.951Z,31.12
2019-04-01T12:52:09.954Z,31.32